sensor_id;sensor_type;location;lat;lon;timestamp;pressure;altitude;pressure_sealevel;temperature;humidity
72548;BME280;60570;50.848;6.776;2022-12-07T00:00:19;100693.09;;;7.01;70.89
72548;BME280;60570;50.848;6.776;2022-12-07T00:01:22;100679.91;;;6.98;70.77
72548;BME280;60570;50.848;6.776;2022-12-07T00:02:23;100684.91;;;6.96;71.39
72548;BME280;60570;50.848;6.776;2022-12-07T00:03:23;100691.66;;;7.04;70.99
72548;BME280;60570;50.848;6.776;2022-12-07T00:04:24;100686.25;;;6.99;71.28
72548;BME280;60570;50.848;6.776;2022-12-07T00:05:24;100689.09;;;7.07;70.64
72548;BME280;60570;50.848;6.776;2022-12-07T00:06:25;100683.88;;;7.06;70.68
72548;BME280;60570;50.848;6.776;2022-12-07T00:07:25;100684.09;;;6.96;70.92
72548;BME280;60570;50.848;6.776;2022-12-07T00:08:26;100681.13;;;7.06;70.86
72548;BME280;60570;50.848;6.776;2022-12-07T00:09:26;100687.56;;;7.01;71.01
72548;BME280;60570;50.848;6.776;2022-12-07T00:10:26;100681.94;;;7.06;70.76
72548;BME280;60570;50.848;6.776;2022-12-07T00:11:27;100675.00;;;7.09;70.84
72548;BME280;60570;50.848;6.776;2022-12-07T00:12:27;100673.53;;;7.11;70.44
72548;BME280;60570;50.848;6.776;2022-12-07T00:13:28;100677.03;;;7.03;70.68
72548;BME280;60570;50.848;6.776;2022-12-07T00:14:28;100670.91;;;7.06;70.77
72548;BME280;60570;50.848;6.776;2022-12-07T00:15:28;100673.16;;;7.04;71.29
72548;BME280;60570;50.848;6.776;2022-12-07T00:16:30;100673.47;;;7.16;70.93
72548;BME280;60570;50.848;6.776;2022-12-07T00:17:31;100670.59;;;7.08;70.62
72548;BME280;60570;50.848;6.776;2022-12-07T00:18:34;100672.63;;;7.02;71.19
72548;BME280;60570;50.848;6.776;2022-12-07T00:19:34;100674.06;;;7.00;71.27
72548;BME280;60570;50.848;6.776;2022-12-07T00:20:35;100669.03;;;7.15;70.64
72548;BME280;60570;50.848;6.776;2022-12-07T00:21:35;100670.00;;;7.11;70.68
72548;BME280;60570;50.848;6.776;2022-12-07T00:22:35;100678.38;;;7.06;70.95
72548;BME280;60570;50.848;6.776;2022-12-07T00:23:36;100679.19;;;7.06;71.01
72548;BME280;60570;50.848;6.776;2022-12-07T00:24:37;100676.31;;;7.11;71.06
72548;BME280;60570;50.848;6.776;2022-12-07T00:25:37;100678.28;;;7.11;71.02
72548;BME280;60570;50.848;6.776;2022-12-07T00:26:39;100672.25;;;7.09;70.46
72548;BME280;60570;50.848;6.776;2022-12-07T00:27:39;100667.31;;;7.06;70.92
72548;BME280;60570;50.848;6.776;2022-12-07T00:28:40;100665.28;;;6.98;71.51
72548;BME280;60570;50.848;6.776;2022-12-07T00:29:41;100657.63;;;6.95;71.22
72548;BME280;60570;50.848;6.776;2022-12-07T00:30:41;100655.97;;;6.94;71.08
72548;BME280;60570;50.848;6.776;2022-12-07T00:31:42;100652.81;;;7.00;71.41
72548;BME280;60570;50.848;6.776;2022-12-07T00:32:42;100653.50;;;6.92;71.39
72548;BME280;60570;50.848;6.776;2022-12-07T00:33:43;100657.81;;;6.98;71.51
72548;BME280;60570;50.848;6.776;2022-12-07T00:34:43;100655.75;;;7.04;71.07
72548;BME280;60570;50.848;6.776;2022-12-07T00:35:44;100661.28;;;7.04;70.82
72548;BME280;60570;50.848;6.776;2022-12-07T00:36:44;100655.16;;;6.93;71.14
72548;BME280;60570;50.848;6.776;2022-12-07T00:37:44;100660.16;;;7.05;71.06
72548;BME280;60570;50.848;6.776;2022-12-07T00:38:45;100650.88;;;7.01;71.00
72548;BME280;60570;50.848;6.776;2022-12-07T00:39:46;100651.97;;;7.00;71.17
72548;BME280;60570;50.848;6.776;2022-12-07T00:40:57;100659.25;;;6.96;71.46
72548;BME280;60570;50.848;6.776;2022-12-07T00:41:57;100650.75;;;6.92;71.10
72548;BME280;60570;50.848;6.776;2022-12-07T00:42:58;100646.88;;;6.93;71.61
72548;BME280;60570;50.848;6.776;2022-12-07T00:43:58;100640.53;;;7.06;71.27
72548;BME280;60570;50.848;6.776;2022-12-07T00:44:59;100645.03;;;7.02;71.20
72548;BME280;60570;50.848;6.776;2022-12-07T00:45:59;100643.59;;;7.05;70.81
72548;BME280;60570;50.848;6.776;2022-12-07T00:46:59;100639.88;;;7.09;70.67
72548;BME280;60570;50.848;6.776;2022-12-07T00:48:00;100650.88;;;7.01;71.24
72548;BME280;60570;50.848;6.776;2022-12-07T00:49:00;100644.41;;;7.05;71.22
72548;BME280;60570;50.848;6.776;2022-12-07T00:50:01;100643.09;;;7.03;70.81
72548;BME280;60570;50.848;6.776;2022-12-07T00:51:01;100635.59;;;7.03;70.72
72548;BME280;60570;50.848;6.776;2022-12-07T00:52:02;100636.84;;;7.11;70.59
72548;BME280;60570;50.848;6.776;2022-12-07T00:53:03;100647.66;;;7.07;70.69
72548;BME280;60570;50.848;6.776;2022-12-07T00:54:03;100640.91;;;7.13;70.99
72548;BME280;60570;50.848;6.776;2022-12-07T00:55:04;100645.84;;;7.03;71.55
72548;BME280;60570;50.848;6.776;2022-12-07T00:56:06;100645.22;;;7.06;71.23
72548;BME280;60570;50.848;6.776;2022-12-07T00:57:07;100645.84;;;7.03;71.26
72548;BME280;60570;50.848;6.776;2022-12-07T00:58:07;100644.50;;;7.00;71.41
72548;BME280;60570;50.848;6.776;2022-12-07T00:59:12;100646.66;;;7.03;71.51
72548;BME280;60570;50.848;6.776;2022-12-07T01:00:13;100641.03;;;7.08;70.98
72548;BME280;60570;50.848;6.776;2022-12-07T01:01:14;100642.06;;;7.12;70.79
72548;BME280;60570;50.848;6.776;2022-12-07T01:02:14;100647.66;;;7.07;70.76
72548;BME280;60570;50.848;6.776;2022-12-07T01:03:15;100635.69;;;7.12;71.14
72548;BME280;60570;50.848;6.776;2022-12-07T01:04:16;100646.13;;;7.01;71.51
72548;BME280;60570;50.848;6.776;2022-12-07T01:05:17;100642.47;;;7.06;71.16
72548;BME280;60570;50.848;6.776;2022-12-07T01:06:19;100639.38;;;7.07;71.05
72548;BME280;60570;50.848;6.776;2022-12-07T01:07:19;100646.38;;;7.05;71.21
72548;BME280;60570;50.848;6.776;2022-12-07T01:08:20;100639.69;;;7.06;71.25
72548;BME280;60570;50.848;6.776;2022-12-07T01:09:21;100647.78;;;7.16;70.91
72548;BME280;60570;50.848;6.776;2022-12-07T01:10:22;100641.03;;;7.08;70.97
72548;BME280;60570;50.848;6.776;2022-12-07T01:11:25;100643.78;;;7.08;70.72
72548;BME280;60570;50.848;6.776;2022-12-07T01:12:25;100639.69;;;7.06;70.82
72548;BME280;60570;50.848;6.776;2022-12-07T01:13:26;100644.00;;;7.12;71.06
72548;BME280;60570;50.848;6.776;2022-12-07T01:14:28;100642.38;;;7.11;70.64
72548;BME280;60570;50.848;6.776;2022-12-07T01:15:29;100648.69;;;7.11;71.02
72548;BME280;60570;50.848;6.776;2022-12-07T01:16:31;100642.06;;;7.12;70.82
72548;BME280;60570;50.848;6.776;2022-12-07T01:17:32;100646.16;;;7.15;70.63
72548;BME280;60570;50.848;6.776;2022-12-07T01:18:35;100653.41;;;7.11;70.74
72548;BME280;60570;50.848;6.776;2022-12-07T01:19:36;100651.75;;;7.10;70.92
72548;BME280;60570;50.848;6.776;2022-12-07T01:20:36;100658.13;;;7.10;70.98
72548;BME280;60570;50.848;6.776;2022-12-07T01:21:38;100653.31;;;7.02;70.99
72548;BME280;60570;50.848;6.776;2022-12-07T01:22:40;100655.34;;;7.10;71.01
72548;BME280;60570;50.848;6.776;2022-12-07T01:23:41;100654.94;;;7.03;71.36
72548;BME280;60570;50.848;6.776;2022-12-07T01:24:41;100656.59;;;7.04;71.59
72548;BME280;60570;50.848;6.776;2022-12-07T01:25:41;100651.25;;;7.08;71.54
72548;BME280;60570;50.848;6.776;2022-12-07T01:26:42;100657.09;;;7.06;71.27
72548;BME280;60570;50.848;6.776;2022-12-07T01:27:42;100655.75;;;7.04;71.12
72548;BME280;60570;50.848;6.776;2022-12-07T01:28:43;100650.88;;;7.01;71.46
72548;BME280;60570;50.848;6.776;2022-12-07T01:29:43;100655.25;;;7.02;71.03
72548;BME280;60570;50.848;6.776;2022-12-07T01:30:44;100656.28;;;7.06;71.14
72548;BME280;60570;50.848;6.776;2022-12-07T01:31:44;100662.09;;;7.04;71.61
72548;BME280;60570;50.848;6.776;2022-12-07T01:32:45;100655.75;;;7.04;71.37
72548;BME280;60570;50.848;6.776;2022-12-07T01:33:51;100667.25;;;6.97;71.65
72548;BME280;60570;50.848;6.776;2022-12-07T01:34:52;100656.69;;;6.99;71.40
72548;BME280;60570;50.848;6.776;2022-12-07T01:35:52;100657.91;;;7.07;71.53
72548;BME280;60570;50.848;6.776;2022-12-07T01:36:53;100660.06;;;6.96;71.48
72548;BME280;60570;50.848;6.776;2022-12-07T01:37:53;100654.94;;;7.03;71.31
72548;BME280;60570;50.848;6.776;2022-12-07T01:38:56;100658.72;;;7.07;71.30
72548;BME280;60570;50.848;6.776;2022-12-07T01:39:57;100662.81;;;7.10;71.04
72548;BME280;60570;50.848;6.776;2022-12-07T01:40:59;100657.00;;;6.98;71.28
72548;BME280;60570;50.848;6.776;2022-12-07T01:41:59;100653.31;;;7.02;71.04
72548;BME280;60570;50.848;6.776;2022-12-07T01:43:00;100653.63;;;7.01;71.48
72548;BME280;60570;50.848;6.776;2022-12-07T01:45:38;100654.91;;;7.17;71.08
72548;BME280;60570;50.848;6.776;2022-12-07T01:46:39;100654.13;;;7.16;71.00
72548;BME280;60570;50.848;6.776;2022-12-07T01:47:41;100654.22;;;7.11;70.84
72548;BME280;60570;50.848;6.776;2022-12-07T01:48:43;100651.16;;;7.13;70.79
72548;BME280;60570;50.848;6.776;2022-12-07T01:49:46;100649.19;;;7.13;71.18
72548;BME280;60570;50.848;6.776;2022-12-07T01:50:48;100659.44;;;7.13;70.91
72548;BME280;60570;50.848;6.776;2022-12-07T01:52:37;100655.75;;;7.04;71.09
72548;BME280;60570;50.848;6.776;2022-12-07T01:53:18;100648.09;;;7.01;71.24
72548;BME280;60570;50.848;6.776;2022-12-07T01:54:20;100655.75;;;7.04;71.11
72548;BME280;60570;50.848;6.776;2022-12-07T01:55:21;100650.75;;;7.06;71.22
72548;BME280;60570;50.848;6.776;2022-12-07T01:56:24;100653.13;;;6.99;71.81
72548;BME280;60570;50.848;6.776;2022-12-07T01:57:25;100646.44;;;7.00;71.32
72548;BME280;60570;50.848;6.776;2022-12-07T01:58:26;100641.53;;;7.10;71.24
72548;BME280;60570;50.848;6.776;2022-12-07T01:59:26;100653.63;;;7.01;71.49
72548;BME280;60570;50.848;6.776;2022-12-07T02:00:27;100655.25;;;7.02;71.44
72548;BME280;60570;50.848;6.776;2022-12-07T02:01:28;100651.25;;;7.08;70.86
72548;BME280;60570;50.848;6.776;2022-12-07T02:02:31;100642.97;;;7.08;71.10
72548;BME280;60570;50.848;6.776;2022-12-07T02:03:39;100649.22;;;7.00;71.38
72548;BME280;60570;50.848;6.776;2022-12-07T02:04:39;100638.59;;;7.07;71.10
72548;BME280;60570;50.848;6.776;2022-12-07T02:05:41;100634.38;;;7.09;71.44
72548;BME280;60570;50.848;6.776;2022-12-07T02:06:42;100637.44;;;7.08;71.21
72548;BME280;60570;50.848;6.776;2022-12-07T02:07:47;100636.72;;;7.16;70.98
72548;BME280;60570;50.848;6.776;2022-12-07T02:08:48;100636.53;;;7.12;70.80
72548;BME280;60570;50.848;6.776;2022-12-07T02:09:48;100630.38;;;7.15;70.80
72548;BME280;60570;50.848;6.776;2022-12-07T02:10:49;100638.06;;;7.18;70.80
72548;BME280;60570;50.848;6.776;2022-12-07T02:11:50;100632.94;;;7.12;70.80
72548;BME280;60570;50.848;6.776;2022-12-07T02:13:12;100630.59;;;7.05;71.30
72548;BME280;60570;50.848;6.776;2022-12-07T02:14:14;100633.44;;;7.14;70.98
72548;BME280;60570;50.848;6.776;2022-12-07T02:15:14;100621.38;;;7.10;71.23
72548;BME280;60570;50.848;6.776;2022-12-07T02:16:46;100626.59;;;7.11;71.18
72548;BME280;60570;50.848;6.776;2022-12-07T02:19:43;100627.28;;;7.17;70.85
72548;BME280;60570;50.848;6.776;2022-12-07T02:21:08;100630.28;;;7.20;70.59
72548;BME280;60570;50.848;6.776;2022-12-07T02:29:11;100626.09;;;7.09;71.09
72548;BME280;60570;50.848;6.776;2022-12-07T02:30:21;100630.81;;;7.09;70.85
72548;BME280;60570;50.848;6.776;2022-12-07T02:31:23;100629.25;;;7.16;70.80
72548;BME280;60570;50.848;6.776;2022-12-07T02:32:48;100628.56;;;7.11;71.18
72548;BME280;60570;50.848;6.776;2022-12-07T02:34:32;100624.16;;;7.10;70.98
72548;BME280;60570;50.848;6.776;2022-12-07T02:35:44;100629.84;;;7.13;71.21
72548;BME280;60570;50.848;6.776;2022-12-07T02:36:52;100626.41;;;7.08;71.11
72548;BME280;60570;50.848;6.776;2022-12-07T02:38:12;100617.19;;;7.12;71.00
72548;BME280;60570;50.848;6.776;2022-12-07T02:39:17;100628.06;;;7.09;71.44
72548;BME280;60570;50.848;6.776;2022-12-07T02:42:37;100623.41;;;7.18;70.85
72548;BME280;60570;50.848;6.776;2022-12-07T02:43:42;100617.50;;;7.11;71.29
72548;BME280;60570;50.848;6.776;2022-12-07T02:44:46;100619.75;;;7.09;70.98
72548;BME280;60570;50.848;6.776;2022-12-07T02:45:47;100626.31;;;7.13;71.44
72548;BME280;60570;50.848;6.776;2022-12-07T02:47:18;100627.09;;;7.13;71.14
72548;BME280;60570;50.848;6.776;2022-12-07T02:48:20;100612.72;;;7.03;71.60
72548;BME280;60570;50.848;6.776;2022-12-07T02:49:26;100619.84;;;7.04;71.56
72548;BME280;60570;50.848;6.776;2022-12-07T02:50:27;100614.84;;;7.06;71.87
72548;BME280;60570;50.848;6.776;2022-12-07T02:51:32;100625.34;;;7.17;71.04
72548;BME280;60570;50.848;6.776;2022-12-07T02:52:32;100626.69;;;7.20;71.31
72548;BME280;60570;50.848;6.776;2022-12-07T02:53:40;100620.56;;;7.09;71.54
72548;BME280;60570;50.848;6.776;2022-12-07T02:54:41;100619.13;;;7.12;71.11
72548;BME280;60570;50.848;6.776;2022-12-07T02:55:41;100615.25;;;7.13;71.27
72548;BME280;60570;50.848;6.776;2022-12-07T03:01:10;100618.53;;;7.15;71.50
72548;BME280;60570;50.848;6.776;2022-12-07T03:03:18;100613.41;;;7.08;71.37
72548;BME280;60570;50.848;6.776;2022-12-07T03:06:10;100615.50;;;7.25;70.86
72548;BME280;60570;50.848;6.776;2022-12-07T03:08:46;100620.66;;;7.18;71.29
72548;BME280;60570;50.848;6.776;2022-12-07T03:09:59;100623.59;;;7.21;71.15
72548;BME280;60570;50.848;6.776;2022-12-07T03:11:06;100623.72;;;7.16;71.06
72548;BME280;60570;50.848;6.776;2022-12-07T03:12:14;100629.75;;;7.18;70.75
72548;BME280;60570;50.848;6.776;2022-12-07T03:14:30;100623.53;;;7.13;71.19
72548;BME280;60570;50.848;6.776;2022-12-07T03:15:43;100620.69;;;7.04;71.33
72548;BME280;60570;50.848;6.776;2022-12-07T03:16:53;100619.53;;;7.05;71.19
72548;BME280;60570;50.848;6.776;2022-12-07T03:17:58;100620.16;;;7.02;71.76
72548;BME280;60570;50.848;6.776;2022-12-07T03:19:12;100622.31;;;7.05;71.47
72548;BME280;60570;50.848;6.776;2022-12-07T03:20:16;100622.72;;;7.12;71.63
72548;BME280;60570;50.848;6.776;2022-12-07T03:21:23;100621.56;;;7.13;71.39
72548;BME280;60570;50.848;6.776;2022-12-07T03:22:28;100619.13;;;7.12;71.28
72548;BME280;60570;50.848;6.776;2022-12-07T03:23:31;100628.94;;;7.18;71.07
72548;BME280;60570;50.848;6.776;2022-12-07T03:24:47;100621.47;;;7.18;70.85
72548;BME280;60570;50.848;6.776;2022-12-07T03:25:54;100621.50;;;7.05;71.20
72548;BME280;60570;50.848;6.776;2022-12-07T03:27:03;100613.09;;;7.10;71.34
72548;BME280;60570;50.848;6.776;2022-12-07T03:28:05;100619.53;;;7.05;71.70
72548;BME280;60570;50.848;6.776;2022-12-07T03:29:17;100615.16;;;7.04;71.64
72548;BME280;60570;50.848;6.776;2022-12-07T03:30:22;100626.19;;;7.04;71.59
72548;BME280;60570;50.848;6.776;2022-12-07T03:31:28;100624.84;;;7.15;71.50
72548;BME280;60570;50.848;6.776;2022-12-07T03:32:30;100620.47;;;7.14;71.50
72548;BME280;60570;50.848;6.776;2022-12-07T03:34:08;100624.47;;;7.08;71.72
72548;BME280;60570;50.848;6.776;2022-12-07T03:35:22;100620.56;;;7.09;71.50
72548;BME280;60570;50.848;6.776;2022-12-07T03:36:47;100622.41;;;7.14;71.13
72548;BME280;60570;50.848;6.776;2022-12-07T03:41:25;100619.81;;;7.17;71.33
72548;BME280;60570;50.848;6.776;2022-12-07T03:42:27;100622.59;;;7.17;71.08
72548;BME280;60570;50.848;6.776;2022-12-07T03:43:29;100621.75;;;7.17;70.96
72548;BME280;60570;50.848;6.776;2022-12-07T03:44:31;100625.53;;;7.21;71.13
72548;BME280;60570;50.848;6.776;2022-12-07T03:45:40;100622.72;;;7.12;71.52
72548;BME280;60570;50.848;6.776;2022-12-07T03:48:07;100618.81;;;7.13;71.56
72548;BME280;60570;50.848;6.776;2022-12-07T03:49:26;100620.66;;;7.18;71.37
72548;BME280;60570;50.848;6.776;2022-12-07T03:50:31;100618.81;;;7.13;71.23
72548;BME280;60570;50.848;6.776;2022-12-07T03:52:50;100623.72;;;7.16;71.59
72548;BME280;60570;50.848;6.776;2022-12-07T03:53:59;100620.28;;;7.11;71.40
72548;BME280;60570;50.848;6.776;2022-12-07T03:56:18;100617.00;;;7.09;71.17
72548;BME280;60570;50.848;6.776;2022-12-07T03:57:20;100620.16;;;7.16;71.70
72548;BME280;60570;50.848;6.776;2022-12-07T03:58:22;100621.06;;;7.11;71.65
72548;BME280;60570;50.848;6.776;2022-12-07T03:59:23;100619.81;;;7.17;71.46
72548;BME280;60570;50.848;6.776;2022-12-07T04:00:25;100612.50;;;7.13;71.65
72548;BME280;60570;50.848;6.776;2022-12-07T04:01:27;100615.84;;;7.10;71.81
72548;BME280;60570;50.848;6.776;2022-12-07T04:02:28;100624.03;;;7.01;71.96
72548;BME280;60570;50.848;6.776;2022-12-07T04:03:29;100612.53;;;6.99;71.66
72548;BME280;60570;50.848;6.776;2022-12-07T04:04:30;100615.97;;;7.05;71.60
72548;BME280;60570;50.848;6.776;2022-12-07T04:05:30;100622.63;;;7.04;71.60
72548;BME280;60570;50.848;6.776;2022-12-07T04:06:31;100619.16;;;6.98;71.87
72548;BME280;60570;50.848;6.776;2022-12-07T04:07:31;100615.47;;;7.03;71.86
72548;BME280;60570;50.848;6.776;2022-12-07T04:08:31;100611.38;;;7.00;71.98
72548;BME280;60570;50.848;6.776;2022-12-07T04:09:32;100610.34;;;7.10;71.81
72548;BME280;60570;50.848;6.776;2022-12-07T04:10:32;100614.00;;;7.19;71.64
72548;BME280;60570;50.848;6.776;2022-12-07T04:11:33;100618.81;;;7.13;71.28
72548;BME280;60570;50.848;6.776;2022-12-07T04:12:33;100611.75;;;7.07;71.52
72548;BME280;60570;50.848;6.776;2022-12-07T04:13:34;100615.03;;;7.09;71.73
72548;BME280;60570;50.848;6.776;2022-12-07T04:14:55;100608.81;;;7.04;71.58
72548;BME280;60570;50.848;6.776;2022-12-07T04:15:55;100616.88;;;7.14;71.48
72548;BME280;60570;50.848;6.776;2022-12-07T04:16:58;100620.56;;;7.09;71.74
72548;BME280;60570;50.848;6.776;2022-12-07T04:17:58;100619.44;;;7.10;71.81
72548;BME280;60570;50.848;6.776;2022-12-07T04:18:59;100618.94;;;7.08;71.83
72548;BME280;60570;50.848;6.776;2022-12-07T04:19:59;100621.38;;;7.10;71.75
72548;BME280;60570;50.848;6.776;2022-12-07T04:20:59;100623.59;;;7.21;71.14
72548;BME280;60570;50.848;6.776;2022-12-07T04:22:01;100613.00;;;7.15;71.63
72548;BME280;60570;50.848;6.776;2022-12-07T04:23:02;100623.94;;;7.20;71.05
72548;BME280;60570;50.848;6.776;2022-12-07T04:24:03;100615.44;;;7.16;71.23
72548;BME280;60570;50.848;6.776;2022-12-07T04:25:04;100612.78;;;7.11;71.29
72548;BME280;60570;50.848;6.776;2022-12-07T04:26:05;100613.72;;;7.07;71.83
72548;BME280;60570;50.848;6.776;2022-12-07T04:27:05;100611.97;;;7.11;71.80
72548;BME280;60570;50.848;6.776;2022-12-07T04:28:06;100611.75;;;7.07;71.66
72548;BME280;60570;50.848;6.776;2022-12-07T04:29:06;100607.25;;;7.11;71.46
72548;BME280;60570;50.848;6.776;2022-12-07T04:30:07;100609.91;;;7.16;71.46
72548;BME280;60570;50.848;6.776;2022-12-07T04:31:08;100608.50;;;7.05;71.57
72548;BME280;60570;50.848;6.776;2022-12-07T04:32:08;100613.22;;;7.05;72.04
72548;BME280;60570;50.848;6.776;2022-12-07T04:33:09;100609.81;;;7.08;71.51
72548;BME280;60570;50.848;6.776;2022-12-07T04:34:10;100604.22;;;6.99;71.90
72548;BME280;60570;50.848;6.776;2022-12-07T04:35:11;100605.53;;;7.02;71.97
72548;BME280;60570;50.848;6.776;2022-12-07T04:36:11;100607.38;;;7.06;71.44
72548;BME280;60570;50.848;6.776;2022-12-07T04:37:12;100607.38;;;7.06;71.74
72548;BME280;60570;50.848;6.776;2022-12-07T04:38:12;100605.13;;;7.08;71.30
72548;BME280;60570;50.848;6.776;2022-12-07T04:39:33;100604.72;;;7.15;71.23
72548;BME280;60570;50.848;6.776;2022-12-07T04:40:34;100605.19;;;7.17;71.11
72548;BME280;60570;50.848;6.776;2022-12-07T04:41:34;100610.13;;;7.06;71.72
72548;BME280;60570;50.848;6.776;2022-12-07T04:42:35;100607.06;;;7.08;71.73
72548;BME280;60570;50.848;6.776;2022-12-07T04:43:35;100604.22;;;7.13;71.52
72548;BME280;60570;50.848;6.776;2022-12-07T04:44:36;100606.75;;;7.09;71.79
72548;BME280;60570;50.848;6.776;2022-12-07T04:45:36;100606.38;;;7.02;71.80
72548;BME280;60570;50.848;6.776;2022-12-07T04:46:37;100607.97;;;7.03;71.85
72548;BME280;60570;50.848;6.776;2022-12-07T04:47:37;100610.97;;;7.07;71.87
72548;BME280;60570;50.848;6.776;2022-12-07T04:48:38;100607.88;;;7.08;71.61
72548;BME280;60570;50.848;6.776;2022-12-07T04:49:38;100604.44;;;7.03;71.60
72548;BME280;60570;50.848;6.776;2022-12-07T04:50:38;100607.69;;;7.05;71.44
72548;BME280;60570;50.848;6.776;2022-12-07T04:51:39;100601.94;;;7.01;71.88
72548;BME280;60570;50.848;6.776;2022-12-07T04:52:40;100602.59;;;6.98;71.77
72548;BME280;60570;50.848;6.776;2022-12-07T04:53:41;100607.78;;;7.00;71.98
72548;BME280;60570;50.848;6.776;2022-12-07T04:54:41;100602.97;;;7.05;71.91
72548;BME280;60570;50.848;6.776;2022-12-07T04:55:41;100606.66;;;7.14;71.26
72548;BME280;60570;50.848;6.776;2022-12-07T04:56:42;100599.97;;;7.15;71.40
72548;BME280;60570;50.848;6.776;2022-12-07T04:57:43;100606.25;;;7.07;71.63
72548;BME280;60570;50.848;6.776;2022-12-07T04:58:45;100598.59;;;7.04;71.46
72548;BME280;60570;50.848;6.776;2022-12-07T04:59:45;100604.63;;;7.06;71.53
72548;BME280;60570;50.848;6.776;2022-12-07T05:00:46;100602.25;;;7.13;71.65
72548;BME280;60570;50.848;6.776;2022-12-07T05:01:46;100598.78;;;7.08;71.52
72548;BME280;60570;50.848;6.776;2022-12-07T05:02:47;100602.69;;;7.07;71.64
72548;BME280;60570;50.848;6.776;2022-12-07T05:03:47;100604.44;;;7.03;71.48
72548;BME280;60570;50.848;6.776;2022-12-07T05:04:48;100603.47;;;7.07;71.48
72548;BME280;60570;50.848;6.776;2022-12-07T05:05:48;100602.28;;;7.00;71.54
72548;BME280;60570;50.848;6.776;2022-12-07T05:06:49;100599.31;;;6.96;71.68
72548;BME280;60570;50.848;6.776;2022-12-07T05:07:50;100602.19;;;7.05;71.51
72548;BME280;60570;50.848;6.776;2022-12-07T05:08:50;100597.16;;;7.07;71.80
72548;BME280;60570;50.848;6.776;2022-12-07T05:09:51;100607.97;;;7.03;71.18
72548;BME280;60570;50.848;6.776;2022-12-07T05:10:51;100604.22;;;7.13;71.52
72548;BME280;60570;50.848;6.776;2022-12-07T05:11:51;100608.22;;;7.07;71.62
72548;BME280;60570;50.848;6.776;2022-12-07T05:12:52;100605.84;;;7.00;71.52
72548;BME280;60570;50.848;6.776;2022-12-07T05:13:52;100606.56;;;7.06;71.68
72548;BME280;60570;50.848;6.776;2022-12-07T05:14:52;100608.63;;;7.00;71.64
72548;BME280;60570;50.848;6.776;2022-12-07T05:15:53;100601.34;;;7.04;71.59
72548;BME280;60570;50.848;6.776;2022-12-07T05:16:53;100606.69;;;7.01;71.52
72548;BME280;60570;50.848;6.776;2022-12-07T05:17:54;100602.69;;;7.07;71.21
72548;BME280;60570;50.848;6.776;2022-12-07T05:18:54;100605.13;;;7.08;71.29
72548;BME280;60570;50.848;6.776;2022-12-07T05:19:55;100599.41;;;7.05;71.17
72548;BME280;60570;50.848;6.776;2022-12-07T05:20:55;100606.03;;;7.04;71.28
72548;BME280;60570;50.848;6.776;2022-12-07T05:21:56;100617.78;;;7.09;71.59
72548;BME280;60570;50.848;6.776;2022-12-07T05:22:56;100614.84;;;7.06;71.59
72548;BME280;60570;50.848;6.776;2022-12-07T05:23:58;100613.63;;;6.98;71.59
72548;BME280;60570;50.848;6.776;2022-12-07T05:24:59;100607.09;;;6.94;71.95
72548;BME280;60570;50.848;6.776;2022-12-07T05:25:59;100614.97;;;7.01;72.03
72548;BME280;60570;50.848;6.776;2022-12-07T05:27:00;100608.75;;;6.95;71.57
72548;BME280;60570;50.848;6.776;2022-12-07T05:28:00;100609.94;;;7.03;71.79
72548;BME280;60570;50.848;6.776;2022-12-07T05:29:00;100615.16;;;7.04;71.51
72548;BME280;60570;50.848;6.776;2022-12-07T05:30:01;100606.88;;;7.04;71.23
72548;BME280;60570;50.848;6.776;2022-12-07T05:31:01;100616.59;;;7.02;71.83
72548;BME280;60570;50.848;6.776;2022-12-07T05:32:02;100608.22;;;7.07;71.36
72548;BME280;60570;50.848;6.776;2022-12-07T05:33:03;100616.50;;;7.07;71.51
72548;BME280;60570;50.848;6.776;2022-12-07T05:34:03;100614.66;;;7.02;71.34
72548;BME280;60570;50.848;6.776;2022-12-07T05:35:04;100609.75;;;6.99;71.67
72548;BME280;60570;50.848;6.776;2022-12-07T05:36:05;100612.81;;;6.98;71.45
72548;BME280;60570;50.848;6.776;2022-12-07T05:37:07;100613.31;;;7.00;71.98
72548;BME280;60570;50.848;6.776;2022-12-07T05:38:07;100603.59;;;7.02;71.64
72548;BME280;60570;50.848;6.776;2022-12-07T05:39:08;100610.47;;;7.05;71.66
72548;BME280;60570;50.848;6.776;2022-12-07T05:40:09;100610.22;;;7.01;71.47
72548;BME280;60570;50.848;6.776;2022-12-07T05:41:13;100608.44;;;6.97;71.61
72548;BME280;60570;50.848;6.776;2022-12-07T05:42:34;100614.13;;;7.00;71.50
72548;BME280;60570;50.848;6.776;2022-12-07T05:43:34;100613.44;;;6.95;71.86
72548;BME280;60570;50.848;6.776;2022-12-07T05:44:35;100606.56;;;7.06;71.32
72548;BME280;60570;50.848;6.776;2022-12-07T05:45:35;100610.22;;;7.01;71.34
72548;BME280;60570;50.848;6.776;2022-12-07T05:46:36;100601.94;;;7.01;71.46
72548;BME280;60570;50.848;6.776;2022-12-07T05:47:37;100611.25;;;7.05;71.32
72548;BME280;60570;50.848;6.776;2022-12-07T05:48:38;100609.75;;;6.99;71.75
72548;BME280;60570;50.848;6.776;2022-12-07T05:49:38;100610.34;;;6.96;71.72
72548;BME280;60570;50.848;6.776;2022-12-07T05:50:39;100604.53;;;6.98;71.42
72548;BME280;60570;50.848;6.776;2022-12-07T05:51:40;100610.47;;;7.05;71.42
72548;BME280;60570;50.848;6.776;2022-12-07T05:52:40;100612.41;;;7.04;71.36
72548;BME280;60570;50.848;6.776;2022-12-07T05:53:40;100610.22;;;7.01;71.30
72548;BME280;60570;50.848;6.776;2022-12-07T05:54:41;100609.44;;;7.01;71.23
72548;BME280;60570;50.848;6.776;2022-12-07T05:55:41;100612.09;;;7.06;71.14
72548;BME280;60570;50.848;6.776;2022-12-07T05:56:42;100604.72;;;7.01;71.33
72548;BME280;60570;50.848;6.776;2022-12-07T05:57:42;100611.56;;;7.04;71.45
72548;BME280;60570;50.848;6.776;2022-12-07T05:59:03;100612.81;;;6.98;71.22
72548;BME280;60570;50.848;6.776;2022-12-07T06:00:22;100610.47;;;7.05;71.54
72548;BME280;60570;50.848;6.776;2022-12-07T06:01:22;100603.09;;;7.00;71.53
72548;BME280;60570;50.848;6.776;2022-12-07T06:02:23;100604.72;;;7.01;71.96
72548;BME280;60570;50.848;6.776;2022-12-07T06:03:23;100609.25;;;6.97;71.68